createdAt,value
2019-04-26T00:00:25.070Z,96154.96
2019-04-26T00:02:07.393Z,96162.16
2019-04-26T00:03:45.630Z,96167.25
2019-04-26T00:05:33.681Z,96168.59
2019-04-26T00:06:57.598Z,96174.76
2019-04-26T00:08:35.715Z,96168.07
2019-04-26T00:10:28.311Z,96168.67
2019-04-26T00:12:25.073Z,96172.46
2019-04-26T00:14:23.273Z,96168.23
2019-04-26T00:16:11.712Z,96170.95
2019-04-26T00:17:55.263Z,96169.31
2019-04-26T00:19:34.576Z,96171.66
2019-04-26T00:21:10.634Z,96173.94
2019-04-26T00:22:46.694Z,96167.13
2019-04-26T00:24:21.864Z,96167.55
2019-04-26T00:25:57.002Z,96168.52
2019-04-26T00:27:32.505Z,96177.38
2019-04-26T00:29:07.622Z,96180.36
2019-04-26T00:30:44.307Z,96174.44
2019-04-26T00:32:22.652Z,96179.88
2019-04-26T00:33:57.855Z,96181.95
2019-04-26T00:35:32.944Z,96186.03
2019-04-26T00:37:08.035Z,96196.64
2019-04-26T00:38:43.611Z,96193.97
2019-04-26T00:40:20.284Z,96203.19
2019-04-26T00:41:55.594Z,96203.88
2019-04-26T00:43:30.890Z,96207.55
2019-04-26T00:45:07.664Z,96210.38
2019-04-26T00:46:46.498Z,96219.23
2019-04-26T00:48:21.645Z,96221.97
2019-04-26T00:49:56.992Z,96221.97
2019-04-26T00:51:32.222Z,96222.77
2019-04-26T00:53:07.536Z,96220.22
2019-04-26T00:54:42.944Z,96228.15
2019-04-26T00:56:18.076Z,96232.84
2019-04-26T00:57:53.896Z,96237.77
2019-04-26T00:59:29.323Z,96241.87
2019-04-26T01:01:04.627Z,96232.09
2019-04-26T01:02:44.745Z,96228.92
2019-04-26T01:04:20.933Z,96228.60
2019-04-26T01:06:00.119Z,96239.22
2019-04-26T01:07:34.865Z,96237.41
2019-04-26T01:09:09.889Z,96230.35
2019-04-26T01:10:45.433Z,96227.82
2019-04-26T01:12:20.495Z,96217.83
2019-04-26T01:13:55.578Z,96222.23
2019-04-26T01:15:30.673Z,96220.59
2019-04-26T01:17:05.783Z,96223.44
2019-04-26T01:18:41.134Z,96231.62
2019-04-26T01:20:17.391Z,96244.05
2019-04-26T01:21:56.378Z,96256.77
2019-04-26T01:23:31.585Z,96249.34
2019-04-26T01:25:06.640Z,96247.38
2019-04-26T01:26:42.091Z,96240.85
2019-04-26T01:28:25.835Z,96241.04
2019-04-26T01:30:05.501Z,96245.29
2019-04-26T01:31:47.448Z,96245.89
2019-04-26T01:33:22.483Z,96246.49
2019-04-26T01:34:57.550Z,96254.13
2019-04-26T01:36:32.700Z,96257.91
2019-04-26T01:38:07.848Z,96251.25
2019-04-26T01:39:47.219Z,96257.62
2019-04-26T01:41:30.410Z,96265.80
2019-04-26T01:43:33.813Z,96279.00
2019-04-26T01:45:21.663Z,96282.20
2019-04-26T01:46:57.162Z,96281.31
2019-04-26T01:48:47.305Z,96272.97
2019-04-26T01:50:23.558Z,96275.72
2019-04-26T01:52:04.765Z,96280.29
2019-04-26T01:53:39.902Z,96286.06
2019-04-26T01:55:14.982Z,96298.94
2019-04-26T01:56:50.562Z,96287.58
2019-04-26T01:58:25.706Z,96281.84
2019-04-26T02:00:13.842Z,96281.98
2019-04-26T02:02:23.713Z,96285.95
2019-04-26T02:03:59.171Z,96297.36
2019-04-26T02:05:36.896Z,96308.41
2019-04-26T02:07:12.571Z,96311.45
2019-04-26T02:08:47.689Z,96308.57
2019-04-26T02:10:25.116Z,96312.66
2019-04-26T02:12:00.411Z,96312.19
2019-04-26T02:13:36.643Z,96306.58
2019-04-26T02:15:14.073Z,96307.34
2019-04-26T02:16:51.012Z,96291.12
2019-04-26T02:18:26.098Z,96297.02
2019-04-26T02:20:01.528Z,96305.69
2019-04-26T02:21:43.361Z,96305.84
2019-04-26T02:23:25.185Z,96311.45
2019-04-26T02:25:02.223Z,96309.05
2019-04-26T02:26:42.109Z,96307.20
2019-04-26T02:28:17.139Z,96300.23
2019-04-26T02:29:52.543Z,96288.08
2019-04-26T02:31:29.258Z,96287.02
2019-04-26T02:33:05.026Z,96289.15
2019-04-26T02:34:40.468Z,96292.02
2019-04-26T02:36:16.013Z,96297.78
2019-04-26T02:37:51.144Z,96298.10
2019-04-26T02:39:31.392Z,96283.23
2019-04-26T02:41:06.593Z,96277.00
2019-04-26T02:42:42.974Z,96293.22
2019-04-26T02:44:21.803Z,96288.81
2019-04-26T02:46:12.741Z,96278.50
2019-04-26T02:47:59.432Z,96273.80
2019-04-26T02:49:42.984Z,96270.45
2019-04-26T02:51:22.635Z,96269.53
2019-04-26T02:53:29.678Z,96279.37
2019-04-26T02:55:11.921Z,96278.90
2019-04-26T02:56:51.328Z,96277.38
2019-04-26T02:58:28.281Z,96286.16
2019-04-26T03:00:08.749Z,96291.94
2019-04-26T03:01:43.969Z,96304.18
2019-04-26T03:03:19.771Z,96310.40
2019-04-26T03:05:00.308Z,96323.18
2019-04-26T03:06:37.278Z,96335.74
2019-04-26T03:08:21.605Z,96336.47
2019-04-26T03:10:02.952Z,96339.08
2019-04-26T03:11:46.577Z,96333.05
2019-04-26T03:13:51.392Z,96327.27
2019-04-26T03:15:45.101Z,96335.46
2019-04-26T03:17:39.728Z,96347.13
2019-04-26T03:19:39.441Z,96345.13
2019-04-26T03:21:24.053Z,96342.25
2019-04-26T03:23:41.591Z,96343.93
2019-04-26T03:25:36.975Z,96339.23
2019-04-26T03:27:32.701Z,96343.45
2019-04-26T03:29:37.451Z,96337.84
2019-04-26T03:31:33.989Z,96338.59
2019-04-26T03:33:39.027Z,96331.20
2019-04-26T03:35:49.230Z,96328.80
2019-04-26T03:37:54.829Z,96337.71
2019-04-26T03:39:44.502Z,96340.13
2019-04-26T03:41:30.820Z,96342.84
2019-04-26T03:43:41.227Z,96348.19
2019-04-26T03:45:21.984Z,96347.58
2019-04-26T03:47:00.373Z,96346.94
2019-04-26T03:49:13.169Z,96346.47
2019-04-26T03:50:56.860Z,96354.65
2019-04-26T03:53:17.498Z,96361.31
2019-04-26T03:54:56.734Z,96369.24
2019-04-26T03:57:04.564Z,96362.98
2019-04-26T03:59:18.258Z,96361.98
2019-04-26T04:00:57.470Z,96360.74
2019-04-26T04:02:48.508Z,96366.32
2019-04-26T04:04:46.853Z,96368.00
2019-04-26T04:06:28.943Z,96374.18
2019-04-26T04:08:04.865Z,96377.67
2019-04-26T04:09:42.793Z,96374.46
2019-04-26T04:11:20.391Z,96382.64
2019-04-26T04:13:11.581Z,96380.55
2019-04-26T04:15:02.839Z,96382.97
2019-04-26T04:17:08.923Z,96372.97
2019-04-26T04:18:47.681Z,96377.03
2019-04-26T04:20:42.535Z,96380.19
2019-04-26T04:22:19.409Z,96383.81
2019-04-26T04:24:07.745Z,96391.79
2019-04-26T04:25:47.780Z,96395.68
2019-04-26T04:27:49.373Z,96389.50
2019-04-26T04:29:55.292Z,96390.02
2019-04-26T04:31:32.735Z,96398.08
2019-04-26T04:33:36.706Z,96393.84
2019-04-26T04:35:12.540Z,96389.58
2019-04-26T04:36:51.569Z,96400.49
2019-04-26T04:38:49.578Z,96397.97
2019-04-26T04:41:13.161Z,96395.23
2019-04-26T04:43:11.205Z,96407.16
2019-04-26T04:46:00.761Z,96412.48
2019-04-26T04:48:20.350Z,96412.77
2019-04-26T04:50:17.131Z,96416.45
2019-04-26T04:52:16.942Z,96423.27
2019-04-26T04:54:05.843Z,96425.39
2019-04-26T04:55:52.061Z,96429.77
2019-04-26T04:57:56.040Z,96430.78
2019-04-26T04:59:35.782Z,96436.89
2019-04-26T05:02:32.214Z,96438.69
2019-04-26T05:04:17.738Z,96440.72
2019-04-26T05:06:28.950Z,96443.59
2019-04-26T05:08:22.720Z,96446.34
2019-04-26T05:10:37.535Z,96444.19
2019-04-26T05:12:23.822Z,96451.45
2019-04-26T05:14:12.880Z,96460.01
2019-04-26T05:16:20.102Z,96453.03
2019-04-26T05:18:29.753Z,96450.31
2019-04-26T05:20:22.660Z,96453.69
2019-04-26T05:22:23.813Z,96455.53
2019-04-26T05:24:17.425Z,96459.25
2019-04-26T05:26:52.155Z,96467.96
2019-04-26T05:28:55.941Z,96471.45
2019-04-26T05:31:20.797Z,96474.18
2019-04-26T05:33:30.152Z,96473.58
2019-04-26T05:35:43.325Z,96482.63
2019-04-26T05:38:17.920Z,96485.74
2019-04-26T05:40:07.204Z,96484.81
2019-04-26T05:42:23.541Z,96491.44
2019-04-26T05:44:16.467Z,96497.98
2019-04-26T05:46:31.557Z,96504.30
2019-04-26T05:49:04.459Z,96507.41
2019-04-26T05:51:23.053Z,96523.61
2019-04-26T05:54:02.103Z,96523.74
2019-04-26T05:56:24.921Z,96523.61
2019-04-26T05:58:38.568Z,96518.02
2019-04-26T06:00:52.128Z,96519.77
2019-04-26T06:03:11.958Z,96528.10
2019-04-26T06:05:22.403Z,96526.77
2019-04-26T06:07:41.900Z,96529.77
2019-04-26T06:10:26.747Z,96530.64
2019-04-26T06:12:32.743Z,96532.27
2019-04-26T06:14:43.465Z,96530.20
2019-04-26T06:17:05.536Z,96520.77
2019-04-26T06:19:02.771Z,96525.63
2019-04-26T06:21:04.361Z,96524.50
2019-04-26T06:22:58.238Z,96528.15
2019-04-26T06:24:39.717Z,96532.78
2019-04-26T06:26:48.991Z,96533.20
2019-04-26T06:29:08.153Z,96539.92
2019-04-26T06:30:55.481Z,96538.72
2019-04-26T06:33:04.026Z,96539.39
2019-04-26T06:34:57.209Z,96550.74
2019-04-26T06:36:47.135Z,96551.73
2019-04-26T06:39:27.456Z,96557.07
2019-04-26T06:41:29.696Z,96557.63
2019-04-26T06:43:31.654Z,96564.39
2019-04-26T06:45:30.318Z,96552.69
2019-04-26T06:47:22.514Z,96544.06
2019-04-26T06:49:11.777Z,96539.86
2019-04-26T06:50:54.725Z,96544.50
2019-04-26T06:52:31.357Z,96546.03
2019-04-26T06:54:13.217Z,96543.78
2019-04-26T06:55:59.115Z,96530.35
2019-04-26T06:58:17.013Z,96523.24
2019-04-26T07:00:20.229Z,96533.22
2019-04-26T07:02:08.250Z,96534.56
2019-04-26T07:04:36.310Z,96539.81
2019-04-26T07:06:16.650Z,96540.80
2019-04-26T07:08:25.993Z,96549.28
2019-04-26T07:10:18.949Z,96556.54
2019-04-26T07:12:35.665Z,96561.25
2019-04-26T07:14:31.713Z,96566.28
2019-04-26T07:16:26.465Z,96579.16
2019-04-26T07:18:45.669Z,96585.33
2019-04-26T07:20:46.861Z,96576.82
2019-04-26T07:23:07.957Z,96568.81
2019-04-26T07:25:19.144Z,96575.80
2019-04-26T07:27:25.928Z,96572.22
2019-04-26T07:29:28.373Z,96576.69
2019-04-26T07:31:15.434Z,96578.44
2019-04-26T07:33:40.524Z,96573.34
2019-04-26T07:35:20.912Z,96578.87
2019-04-26T07:37:39.875Z,96581.25
2019-04-26T07:39:48.080Z,96587.22
2019-04-26T07:42:07.389Z,96586.86
2019-04-26T07:44:45.390Z,96590.73
2019-04-26T07:47:16.857Z,96605.95
2019-04-26T07:49:47.939Z,96609.36
2019-04-26T07:52:00.590Z,96622.34
2019-04-26T07:53:54.420Z,96623.44
2019-04-26T07:55:44.964Z,96627.60
2019-04-26T07:57:59.850Z,96632.06
2019-04-26T08:00:27.831Z,96633.70
2019-04-26T08:02:53.465Z,96629.58
2019-04-26T08:04:40.702Z,96634.52
2019-04-26T08:06:42.452Z,96632.13
2019-04-26T08:08:26.368Z,96630.95
2019-04-26T08:10:16.465Z,96632.72
2019-04-26T08:11:55.125Z,96641.17
2019-04-26T08:13:30.978Z,96647.23
2019-04-26T08:15:25.171Z,96648.92
2019-04-26T08:17:25.126Z,96651.55
2019-04-26T08:19:06.921Z,96656.78
2019-04-26T08:20:51.638Z,96644.39
2019-04-26T08:22:32.413Z,96638.59
2019-04-26T08:24:28.121Z,96625.84
2019-04-26T08:26:06.165Z,96621.39
2019-04-26T08:27:47.085Z,96612.67
2019-04-26T08:29:23.220Z,96603.34
2019-04-26T08:31:07.541Z,96601.16
2019-04-26T08:32:51.015Z,96601.70
2019-04-26T08:34:29.711Z,96605.36
2019-04-26T08:36:08.802Z,96611.39
2019-04-26T08:37:53.294Z,96618.05
2019-04-26T08:39:44.525Z,96621.59
2019-04-26T08:41:13.381Z,96620.55
2019-04-26T08:43:08.463Z,96617.87
2019-04-26T08:44:58.489Z,96618.56
2019-04-26T08:46:53.182Z,96618.47
2019-04-26T08:48:36.518Z,96622.34
2019-04-26T08:50:22.888Z,96630.33
2019-04-26T08:51:58.616Z,96636.22
2019-04-26T08:53:34.660Z,96636.30
2019-04-26T08:55:12.682Z,96641.04
2019-04-26T08:57:00.893Z,96635.47
2019-04-26T08:58:40.936Z,96639.30
2019-04-26T09:00:36.257Z,96638.25
2019-04-26T09:02:33.095Z,96636.05
2019-04-26T09:04:17.618Z,96632.68
2019-04-26T09:06:36.788Z,96629.14
2019-04-26T09:08:09.117Z,96623.13
2019-04-26T09:09:56.752Z,96631.25
2019-04-26T09:11:30.015Z,96628.31
2019-04-26T09:13:02.962Z,96630.02
2019-04-26T09:14:38.179Z,96624.95
2019-04-26T09:16:32.031Z,96625.80
2019-04-26T09:18:09.892Z,96624.28
2019-04-26T09:19:47.573Z,96626.01
2019-04-26T09:21:42.377Z,96625.56
2019-04-26T09:23:40.148Z,96626.86
2019-04-26T09:25:22.765Z,96624.00
2019-04-26T09:27:02.657Z,96616.39
2019-04-26T09:28:57.822Z,96615.31
2019-04-26T09:30:42.111Z,96613.64
2019-04-26T09:32:24.092Z,96615.52
2019-04-26T09:34:06.418Z,96606.84
2019-04-26T09:35:45.056Z,96606.33
2019-04-26T09:37:44.470Z,96605.16
2019-04-26T09:39:26.549Z,96604.23
2019-04-26T09:41:03.345Z,96604.73
2019-04-26T09:43:10.401Z,96597.09
2019-04-26T09:44:52.807Z,96602.66
2019-04-26T09:46:56.296Z,96603.44
2019-04-26T09:48:43.203Z,96601.17
2019-04-26T09:50:49.391Z,96602.20
2019-04-26T09:52:38.376Z,96603.77
2019-04-26T09:54:18.093Z,96589.70
2019-04-26T09:56:00.673Z,96589.41
2019-04-26T09:57:42.490Z,96585.52
2019-04-26T09:59:13.010Z,96586.80
2019-04-26T10:00:51.472Z,96584.31
2019-04-26T10:02:33.981Z,96586.66
2019-04-26T10:04:10.735Z,96584.05
2019-04-26T10:05:52.239Z,96589.08
2019-04-26T10:07:37.532Z,96589.47
2019-04-26T10:09:30.877Z,96588.09
2019-04-26T10:11:09.525Z,96595.09
2019-04-26T10:12:59.656Z,96599.52
2019-04-26T10:14:47.389Z,96603.16
2019-04-26T10:16:28.901Z,96603.58
2019-04-26T10:18:08.894Z,96608.04
2019-04-26T10:20:06.305Z,96602.13
2019-04-26T10:21:41.524Z,96616.14
2019-04-26T10:23:21.901Z,96613.91
2019-04-26T10:24:57.373Z,96617.20
2019-04-26T10:26:40.073Z,96622.40
2019-04-26T10:28:16.977Z,96620.11
2019-04-26T10:29:55.697Z,96617.00
2019-04-26T10:31:30.855Z,96615.92
2019-04-26T10:33:07.261Z,96613.80
2019-04-26T10:34:54.034Z,96620.59
2019-04-26T10:36:34.075Z,96612.84
2019-04-26T10:38:12.040Z,96622.69
2019-04-26T10:39:53.141Z,96619.15
2019-04-26T10:41:32.651Z,96612.84
2019-04-26T10:43:14.596Z,96617.53
2019-04-26T10:44:54.081Z,96617.45
2019-04-26T10:46:32.397Z,96616.67
2019-04-26T10:48:09.696Z,96615.31
2019-04-26T10:49:48.289Z,96620.78
2019-04-26T10:51:42.944Z,96621.71
2019-04-26T10:53:45.254Z,96630.11
2019-04-26T10:55:53.757Z,96625.53
2019-04-26T10:57:38.817Z,96633.70
2019-04-26T10:59:44.018Z,96639.70
2019-04-26T11:01:18.810Z,96645.98
2019-04-26T11:03:00.124Z,96651.77
2019-04-26T11:04:37.229Z,96657.09
2019-04-26T11:06:14.805Z,96659.22
2019-04-26T11:07:58.207Z,96655.13
2019-04-26T11:09:34.055Z,96646.95
2019-04-26T11:11:10.501Z,96635.78
2019-04-26T11:12:54.565Z,96632.48
2019-04-26T11:14:40.291Z,96626.16
2019-04-26T11:16:28.315Z,96622.12
2019-04-26T11:18:15.345Z,96617.89
2019-04-26T11:19:57.389Z,96619.98
2019-04-26T11:21:34.138Z,96614.17
2019-04-26T11:23:14.902Z,96611.94
2019-04-26T11:24:53.769Z,96608.78
2019-04-26T11:26:31.106Z,96610.36
2019-04-26T11:28:07.108Z,96610.06
2019-04-26T11:29:53.078Z,96609.22
2019-04-26T11:31:23.449Z,96600.27
2019-04-26T11:32:57.104Z,96608.78
2019-04-26T11:34:33.628Z,96605.12
2019-04-26T11:36:09.258Z,96592.92
2019-04-26T11:37:50.780Z,96593.09
2019-04-26T11:39:27.961Z,96588.02
2019-04-26T11:41:06.220Z,96582.73
2019-04-26T11:42:41.872Z,96579.70
2019-04-26T11:44:19.174Z,96579.34
2019-04-26T11:46:04.250Z,96578.16
2019-04-26T11:47:32.240Z,96582.42
2019-04-26T11:49:08.245Z,96573.00
2019-04-26T11:50:43.553Z,96578.17
2019-04-26T11:52:19.019Z,96580.44
2019-04-26T11:54:05.736Z,96584.22
2019-04-26T11:55:40.892Z,96589.31
2019-04-26T11:57:22.120Z,96586.86
2019-04-26T11:58:58.356Z,96585.33
2019-04-26T12:00:39.380Z,96588.39
2019-04-26T12:02:17.531Z,96579.37
2019-04-26T12:04:31.927Z,96578.79
2019-04-26T12:06:21.367Z,96581.69
2019-04-26T12:08:02.723Z,96582.60
2019-04-26T12:09:41.298Z,96582.47
2019-04-26T12:11:18.520Z,96587.61
2019-04-26T12:13:05.898Z,96585.66
2019-04-26T12:14:38.374Z,96587.18
2019-04-26T12:16:18.593Z,96586.24
2019-04-26T12:17:58.723Z,96577.21
2019-04-26T12:19:30.948Z,96581.17
2019-04-26T12:21:08.941Z,96566.16
2019-04-26T12:22:45.167Z,96570.05
2019-04-26T12:24:20.879Z,96562.53
2019-04-26T12:25:56.922Z,96560.53
2019-04-26T12:27:32.231Z,96566.75
2019-04-26T12:29:10.528Z,96564.20
2019-04-26T12:30:46.117Z,96558.55
2019-04-26T12:32:21.781Z,96554.98
2019-04-26T12:33:57.437Z,96553.54
2019-04-26T12:35:32.947Z,96545.86
2019-04-26T12:37:08.460Z,96547.50
2019-04-26T12:38:44.520Z,96554.16
2019-04-26T12:40:23.924Z,96559.05
2019-04-26T12:42:01.686Z,96557.41
2019-04-26T12:43:38.013Z,96574.05
2019-04-26T12:45:32.285Z,96572.98
2019-04-26T12:47:16.562Z,96571.91
2019-04-26T12:48:53.900Z,96574.09
2019-04-26T12:50:35.196Z,96578.00
2019-04-26T12:52:08.339Z,96567.42
2019-04-26T12:53:53.493Z,96569.91
2019-04-26T12:55:29.699Z,96580.71
2019-04-26T12:57:06.187Z,96579.65
2019-04-26T12:58:45.719Z,96576.72
2019-04-26T13:00:26.183Z,96584.03
2019-04-26T13:02:05.854Z,96585.20
2019-04-26T13:03:47.060Z,96579.81
2019-04-26T13:05:22.984Z,96580.42
2019-04-26T13:07:22.748Z,96576.98
2019-04-26T13:08:51.503Z,96581.30
2019-04-26T13:10:38.919Z,96583.48
2019-04-26T13:12:26.016Z,96585.18
2019-04-26T13:14:17.048Z,96585.33
2019-04-26T13:16:14.437Z,96586.23
2019-04-26T13:17:59.961Z,96582.81
2019-04-26T13:19:35.271Z,96589.75
2019-04-26T13:21:17.003Z,96597.02
2019-04-26T13:23:03.753Z,96593.11
2019-04-26T13:24:40.965Z,96592.95
2019-04-26T13:26:17.880Z,96595.50
2019-04-26T13:27:53.018Z,96600.38
2019-04-26T13:29:31.100Z,96603.06
2019-04-26T13:31:09.001Z,96604.08
2019-04-26T13:32:53.333Z,96604.06
2019-04-26T13:34:26.513Z,96605.14
2019-04-26T13:36:03.753Z,96599.06
2019-04-26T13:37:49.912Z,96593.87
2019-04-26T13:39:26.390Z,96607.13
2019-04-26T13:41:23.636Z,96605.45
2019-04-26T13:43:04.268Z,96603.58
2019-04-26T13:45:01.315Z,96602.66
2019-04-26T13:46:59.554Z,96598.80
2019-04-26T13:49:14.223Z,96607.59
2019-04-26T13:51:01.337Z,96605.16
2019-04-26T13:52:35.771Z,96609.42
2019-04-26T13:54:21.061Z,96613.67
2019-04-26T13:55:58.257Z,96604.23
2019-04-26T13:57:35.292Z,96604.31
2019-04-26T13:59:17.051Z,96602.03
2019-04-26T14:01:05.114Z,96600.37
2019-04-26T14:02:47.302Z,96602.84
2019-04-26T14:04:42.657Z,96607.53
2019-04-26T14:06:28.053Z,96613.59
2019-04-26T14:08:21.750Z,96619.98
2019-04-26T14:09:57.542Z,96621.06
2019-04-26T14:11:35.457Z,96619.64
2019-04-26T14:13:26.168Z,96625.11
2019-04-26T14:15:08.589Z,96625.84
2019-04-26T14:16:44.098Z,96609.93
2019-04-26T14:18:25.142Z,96617.70
2019-04-26T14:20:03.660Z,96612.66
2019-04-26T14:21:46.755Z,96613.70
2019-04-26T14:23:51.086Z,96609.30
2019-04-26T14:25:40.393Z,96605.61
2019-04-26T14:27:28.098Z,96601.89
2019-04-26T14:29:03.864Z,96610.13
2019-04-26T14:30:41.785Z,96602.77
2019-04-26T14:32:23.243Z,96601.80
2019-04-26T14:34:05.536Z,96605.34
2019-04-26T14:35:39.881Z,96612.84
2019-04-26T14:37:16.691Z,96608.26
2019-04-26T14:39:05.308Z,96608.05
2019-04-26T14:40:39.211Z,96612.42
2019-04-26T14:42:17.251Z,96611.97
2019-04-26T14:43:56.850Z,96612.38
2019-04-26T14:45:36.218Z,96613.03
2019-04-26T14:47:14.742Z,96615.93
2019-04-26T14:49:01.348Z,96611.41
2019-04-26T14:50:34.469Z,96614.05
2019-04-26T14:52:11.231Z,96617.23
2019-04-26T14:53:46.628Z,96629.95
2019-04-26T14:55:22.893Z,96624.92
2019-04-26T14:57:11.353Z,96625.45
2019-04-26T14:58:42.635Z,96627.36
2019-04-26T15:00:43.889Z,96624.52
2019-04-26T15:02:56.359Z,96623.70
2019-04-26T15:04:54.238Z,96620.07
2019-04-26T15:06:35.732Z,96616.95
2019-04-26T15:08:13.763Z,96610.09
2019-04-26T15:09:54.452Z,96605.77
2019-04-26T15:11:32.253Z,96598.77
2019-04-26T15:13:20.672Z,96599.34
2019-04-26T15:14:57.935Z,96600.59
2019-04-26T15:16:41.424Z,96600.41
2019-04-26T15:18:19.282Z,96593.55
2019-04-26T15:19:59.172Z,96593.42
2019-04-26T15:21:43.801Z,96594.45
2019-04-26T15:23:23.849Z,96601.52
2019-04-26T15:24:56.616Z,96595.24
2019-04-26T15:26:32.754Z,96600.86
2019-04-26T15:28:13.431Z,96600.62
2019-04-26T15:29:45.470Z,96597.38
2019-04-26T15:31:21.667Z,96594.42
2019-04-26T15:32:57.785Z,96597.02
2019-04-26T15:34:35.822Z,96602.27
2019-04-26T15:36:17.543Z,96589.42
2019-04-26T15:38:01.504Z,96593.45
2019-04-26T15:39:59.953Z,96589.63
2019-04-26T15:41:47.015Z,96593.13
2019-04-26T15:43:56.217Z,96592.31
2019-04-26T15:45:42.426Z,96587.36
2019-04-26T15:47:32.019Z,96587.02
2019-04-26T15:49:34.738Z,96593.94
2019-04-26T15:51:07.740Z,96602.90
2019-04-26T15:52:43.828Z,96610.36
2019-04-26T15:54:21.583Z,96609.66
2019-04-26T15:55:59.660Z,96608.63
2019-04-26T15:57:34.805Z,96606.45
2019-04-26T15:59:12.722Z,96598.88
2019-04-26T16:00:48.725Z,96596.78
2019-04-26T16:02:26.172Z,96598.48
2019-04-26T16:04:06.075Z,96602.56
2019-04-26T16:05:38.675Z,96599.99
2019-04-26T16:07:27.024Z,96602.70
2019-04-26T16:08:53.811Z,96606.69
2019-04-26T16:10:37.043Z,96608.44
2019-04-26T16:12:08.400Z,96605.28
2019-04-26T16:13:51.315Z,96606.55
2019-04-26T16:15:23.328Z,96600.94
2019-04-26T16:17:06.429Z,96596.13
2019-04-26T16:18:39.924Z,96600.23
2019-04-26T16:20:15.020Z,96610.67
2019-04-26T16:21:52.694Z,96602.84
2019-04-26T16:23:39.333Z,96609.20
2019-04-26T16:25:12.116Z,96613.22
2019-04-26T16:26:55.652Z,96609.56
2019-04-26T16:28:55.537Z,96617.17
2019-04-26T16:30:42.833Z,96622.95
2019-04-26T16:32:48.079Z,96627.58
2019-04-26T16:34:28.389Z,96628.90
2019-04-26T16:36:09.900Z,96629.95
2019-04-26T16:37:45.060Z,96629.57
2019-04-26T16:39:23.843Z,96627.99
2019-04-26T16:41:00.297Z,96628.95
2019-04-26T16:42:37.310Z,96632.57
2019-04-26T16:44:19.304Z,96631.14
2019-04-26T16:46:02.271Z,96630.30
2019-04-26T16:47:48.793Z,96630.92
2019-04-26T16:49:23.505Z,96628.95
2019-04-26T16:51:01.194Z,96625.77
2019-04-26T16:52:42.226Z,96623.43
2019-04-26T16:54:21.939Z,96627.81
2019-04-26T16:56:04.240Z,96626.27
2019-04-26T16:57:54.897Z,96620.22
2019-04-26T16:59:26.534Z,96614.22
2019-04-26T17:01:04.404Z,96613.25
2019-04-26T17:02:39.067Z,96613.28
2019-04-26T17:04:20.055Z,96614.56
2019-04-26T17:06:06.619Z,96611.57
2019-04-26T17:07:40.402Z,96613.37
2019-04-26T17:09:15.858Z,96615.33
2019-04-26T17:11:03.382Z,96612.05
2019-04-26T17:12:46.358Z,96609.86
2019-04-26T17:14:19.107Z,96610.09
2019-04-26T17:15:58.259Z,96608.72
2019-04-26T17:17:33.141Z,96612.02
2019-04-26T17:19:08.472Z,96614.63
2019-04-26T17:20:44.930Z,96611.48
2019-04-26T17:22:44.603Z,96610.74
2019-04-26T17:24:53.303Z,96609.52
2019-04-26T17:26:46.368Z,96609.34
2019-04-26T17:28:23.026Z,96610.13
2019-04-26T17:30:00.576Z,96616.84
2019-04-26T17:31:35.695Z,96609.98
2019-04-26T17:33:13.024Z,96621.77
2019-04-26T17:34:48.200Z,96626.20
2019-04-26T17:36:23.271Z,96630.53
2019-04-26T17:38:01.982Z,96634.02
2019-04-26T17:39:36.985Z,96635.44
2019-04-26T17:41:14.132Z,96638.57
2019-04-26T17:42:52.286Z,96645.36
2019-04-26T17:44:30.729Z,96646.05
2019-04-26T17:46:10.559Z,96642.38
2019-04-26T17:48:01.437Z,96643.23
2019-04-26T17:49:42.285Z,96644.66
2019-04-26T17:51:23.096Z,96637.74
2019-04-26T17:53:00.576Z,96639.02
2019-04-26T17:54:45.938Z,96640.09
2019-04-26T17:56:13.594Z,96639.19
2019-04-26T17:57:52.594Z,96644.88
2019-04-26T17:59:35.863Z,96643.67
2019-04-26T18:01:39.028Z,96645.09
2019-04-26T18:02:58.021Z,96655.00
2019-04-26T18:04:36.919Z,96649.71
2019-04-26T18:06:14.012Z,96655.36
2019-04-26T18:07:58.686Z,96654.30
2019-04-26T18:09:41.652Z,96652.66
2019-04-26T18:11:20.207Z,96653.11
2019-04-26T18:13:00.463Z,96658.45
2019-04-26T18:14:45.289Z,96660.44
2019-04-26T18:16:29.292Z,96668.20
2019-04-26T18:18:30.761Z,96669.88
2019-04-26T18:20:33.525Z,96671.41
2019-04-26T18:22:48.243Z,96667.14
2019-04-26T18:24:38.126Z,96668.58
2019-04-26T18:26:17.453Z,96673.73
2019-04-26T18:28:01.545Z,96669.77
2019-04-26T18:29:43.639Z,96666.44
2019-04-26T18:31:28.824Z,96676.80
2019-04-26T18:33:13.440Z,96680.91
2019-04-26T18:34:53.662Z,96671.94
2019-04-26T18:36:31.947Z,96675.74
2019-04-26T18:38:08.553Z,96677.89
2019-04-26T18:39:48.258Z,96682.77
2019-04-26T18:41:28.799Z,96680.02
2019-04-26T18:43:18.874Z,96686.88
2019-04-26T18:44:54.280Z,96685.95
2019-04-26T18:46:40.563Z,96693.70
2019-04-26T18:48:19.096Z,96695.19
2019-04-26T18:49:58.236Z,96699.28
2019-04-26T18:51:34.546Z,96692.26
2019-04-26T18:53:39.668Z,96698.03
2019-04-26T18:55:29.043Z,96699.38
2019-04-26T18:57:03.232Z,96705.72
2019-04-26T18:58:40.638Z,96708.27
2019-04-26T19:00:36.385Z,96711.90
2019-04-26T19:02:18.730Z,96715.11
2019-04-26T19:04:00.577Z,96713.39
2019-04-26T19:05:34.107Z,96713.39
2019-04-26T19:07:39.113Z,96714.86
2019-04-26T19:09:02.358Z,96716.06
2019-04-26T19:10:36.079Z,96715.87
2019-04-26T19:12:12.339Z,96719.81
2019-04-26T19:14:23.902Z,96712.05
2019-04-26T19:16:21.431Z,96710.36
2019-04-26T19:18:04.367Z,96721.41
2019-04-26T19:20:02.192Z,96718.64
2019-04-26T19:21:50.645Z,96720.30
2019-04-26T19:23:29.046Z,96722.63
2019-04-26T19:25:21.645Z,96719.65
2019-04-26T19:26:53.894Z,96724.34
2019-04-26T19:28:31.834Z,96725.98
2019-04-26T19:32:15.797Z,96723.80
2019-04-26T19:33:53.441Z,96726.94
2019-04-26T19:35:30.620Z,96721.84
2019-04-26T19:37:10.598Z,96731.85
2019-04-26T19:38:54.745Z,96729.49
2019-04-26T19:40:32.367Z,96728.88
2019-04-26T19:42:30.959Z,96735.72
2019-04-26T19:44:18.883Z,96736.67
2019-04-26T19:46:17.075Z,96744.14
2019-04-26T19:48:02.299Z,96738.85
2019-04-26T19:50:13.544Z,96740.63
2019-04-26T19:52:11.710Z,96740.20
2019-04-26T19:54:21.480Z,96742.94
2019-04-26T19:56:17.439Z,96746.80
2019-04-26T19:58:09.792Z,96746.03
2019-04-26T19:59:48.326Z,96742.00
2019-04-26T20:01:33.846Z,96747.45
2019-04-26T20:03:13.394Z,96748.86
2019-04-26T20:04:48.219Z,96738.20
2019-04-26T20:06:26.913Z,96741.38
2019-04-26T20:08:05.818Z,96747.70
2019-04-26T20:09:52.405Z,96743.12
2019-04-26T20:11:26.592Z,96749.11
2019-04-26T20:13:07.554Z,96748.52
2019-04-26T20:14:49.152Z,96755.12
2019-04-26T20:16:22.324Z,96756.73
2019-04-26T20:18:03.178Z,96757.59
2019-04-26T20:19:39.579Z,96746.09
2019-04-26T20:21:15.433Z,96754.81
2019-04-26T20:23:09.539Z,96753.87
2019-04-26T20:24:48.569Z,96753.23
2019-04-26T20:26:31.517Z,96757.31
2019-04-26T20:28:08.959Z,96762.88
2019-04-26T20:29:49.356Z,96765.08
2019-04-26T20:31:53.765Z,96763.55
2019-04-26T20:33:35.039Z,96764.83
2019-04-26T20:35:19.876Z,96770.35
2019-04-26T20:36:58.756Z,96770.19
2019-04-26T20:38:42.596Z,96766.12
2019-04-26T20:40:20.404Z,96761.02
2019-04-26T20:42:01.017Z,96765.61
2019-04-26T20:43:44.367Z,96759.73
2019-04-26T20:45:21.736Z,96758.88
2019-04-26T20:47:00.088Z,96756.08
2019-04-26T20:48:38.791Z,96761.97